createdAt,value
2018-07-08T00:00:48.539Z,82.30
2018-07-08T00:02:41.316Z,84.51
2018-07-08T00:03:41.248Z,83.22
2018-07-08T00:05:34.017Z,84.56
2018-07-08T00:06:33.953Z,83.12
2018-07-08T00:08:26.748Z,84.27
2018-07-08T00:09:26.666Z,83.60
2018-07-08T00:11:19.472Z,84.85
2018-07-08T00:12:19.401Z,83.98
2018-07-08T00:14:12.163Z,83.80
2018-07-08T00:15:12.097Z,83.80
2018-07-08T00:17:04.909Z,84.71
2018-07-08T00:18:04.827Z,83.85
2018-07-08T00:19:57.591Z,84.28
2018-07-08T00:20:57.529Z,84.19
2018-07-08T00:22:50.362Z,85.63
2018-07-08T00:23:50.251Z,86.68
2018-07-08T00:25:43.030Z,85.53
2018-07-08T00:26:42.953Z,86.21
2018-07-08T00:28:35.738Z,85.34
2018-07-08T00:29:35.661Z,86.05
2018-07-08T00:31:28.435Z,86.15
2018-07-08T00:32:28.359Z,86.15
2018-07-08T00:34:21.148Z,86.34
2018-07-08T00:35:21.090Z,86.15
2018-07-08T00:37:13.871Z,85.86
2018-07-08T00:38:13.791Z,85.00
2018-07-08T00:40:06.579Z,85.25
2018-07-08T00:41:06.505Z,85.53
2018-07-08T00:42:59.285Z,87.21
2018-07-08T00:43:59.211Z,87.01
2018-07-08T00:45:51.988Z,85.77
2018-07-08T00:46:51.933Z,85.58
2018-07-08T00:48:44.723Z,86.15
2018-07-08T00:49:44.632Z,85.86
2018-07-08T00:51:37.414Z,84.04
2018-07-08T00:52:37.343Z,86.72
2018-07-08T00:54:30.117Z,84.61
2018-07-08T00:55:30.047Z,87.40
2018-07-08T00:57:22.833Z,84.28
2018-07-08T00:58:22.770Z,86.05
2018-07-08T01:00:15.526Z,85.15
2018-07-08T01:01:15.461Z,85.25
2018-07-08T01:03:08.301Z,87.55
2018-07-08T01:04:08.235Z,86.88
2018-07-08T01:06:01.105Z,86.15
2018-07-08T01:07:00.930Z,86.15
2018-07-08T01:08:53.716Z,85.48
2018-07-08T01:09:53.637Z,86.34
2018-07-08T01:11:46.420Z,86.25
2018-07-08T01:12:46.348Z,85.48
2018-07-08T01:14:39.111Z,86.25
2018-07-08T01:15:39.053Z,86.25
2018-07-08T01:17:31.840Z,85.52
2018-07-08T01:18:31.762Z,85.48
2018-07-08T01:20:24.534Z,85.62
2018-07-08T01:21:24.470Z,85.81
2018-07-08T01:23:17.263Z,84.85
2018-07-08T01:24:17.186Z,85.52
2018-07-08T01:26:10.060Z,83.89
2018-07-08T01:27:09.974Z,85.24
2018-07-08T01:29:02.743Z,85.19
2018-07-08T01:30:02.674Z,85.00
2018-07-08T01:31:55.506Z,85.77
2018-07-08T01:32:55.389Z,85.86
2018-07-08T01:34:48.205Z,85.38
2018-07-08T01:35:48.187Z,85.81
2018-07-08T01:37:40.900Z,84.37
2018-07-08T01:38:40.840Z,85.04
2018-07-08T01:40:33.644Z,83.98
2018-07-08T01:41:33.561Z,84.91
2018-07-08T01:43:26.335Z,84.61
2018-07-08T01:44:26.326Z,84.91
2018-07-08T01:46:19.099Z,84.47
2018-07-08T01:47:18.977Z,84.81
2018-07-08T01:49:11.809Z,84.75
2018-07-08T01:50:11.738Z,85.24
2018-07-08T01:52:04.532Z,84.95
2018-07-08T01:53:04.459Z,85.04
2018-07-08T01:54:57.388Z,85.71
2018-07-08T01:55:57.256Z,84.95
2018-07-08T01:57:50.055Z,85.86
2018-07-08T01:58:49.975Z,84.91
2018-07-08T02:00:42.767Z,85.48
2018-07-08T02:01:42.727Z,85.96
2018-07-08T02:03:35.518Z,85.67
2018-07-08T02:04:35.455Z,86.05
2018-07-08T02:06:28.232Z,85.77
2018-07-08T02:07:28.164Z,86.15
2018-07-08T02:09:21.009Z,86.68
2018-07-08T02:10:20.896Z,84.91
2018-07-08T02:12:13.777Z,85.10
2018-07-08T02:13:13.661Z,85.91
2018-07-08T02:15:06.448Z,83.98
2018-07-08T02:16:06.407Z,84.37
2018-07-08T02:17:59.279Z,85.33
2018-07-08T02:18:59.085Z,86.48
2018-07-08T02:20:51.865Z,85.24
2018-07-08T02:21:51.795Z,85.52
2018-07-08T02:23:44.681Z,85.33
2018-07-08T02:24:44.572Z,84.47
2018-07-08T02:26:37.353Z,85.33
2018-07-08T02:27:37.318Z,85.24
2018-07-08T02:29:30.119Z,85.04
2018-07-08T02:30:30.016Z,85.04
2018-07-08T02:32:22.810Z,84.95
2018-07-08T02:33:22.729Z,84.27
2018-07-08T02:35:15.554Z,83.47
2018-07-08T02:36:15.533Z,84.91
2018-07-08T02:38:08.585Z,85.52
2018-07-08T02:39:08.207Z,86.44
2018-07-08T02:41:00.990Z,86.77
2018-07-08T02:42:00.947Z,86.38
2018-07-08T02:43:53.707Z,86.00
2018-07-08T02:44:53.625Z,85.14
2018-07-08T02:46:46.489Z,85.91
2018-07-08T02:47:46.408Z,84.75
2018-07-08T02:49:39.212Z,85.14
2018-07-08T02:50:39.107Z,85.33
2018-07-08T02:52:31.894Z,85.33
2018-07-08T02:53:31.822Z,85.04
2018-07-08T02:55:24.596Z,84.95
2018-07-08T02:56:24.567Z,85.14
2018-07-08T02:58:17.323Z,85.28
2018-07-08T02:59:17.237Z,84.95
2018-07-08T03:01:10.020Z,84.80
2018-07-08T03:02:09.951Z,85.08
2018-07-08T03:04:02.727Z,84.60
2018-07-08T03:05:02.653Z,83.84
2018-07-08T03:06:55.414Z,84.80
2018-07-08T03:07:55.363Z,84.41
2018-07-08T03:09:48.137Z,84.47
2018-07-08T03:10:48.067Z,85.57
2018-07-08T03:12:40.878Z,85.24
2018-07-08T03:13:40.798Z,84.47
2018-07-08T03:15:33.560Z,85.91
2018-07-08T03:16:33.501Z,85.04
2018-07-08T03:18:26.303Z,84.85
2018-07-08T03:19:26.217Z,85.24
2018-07-08T03:21:18.979Z,85.33
2018-07-08T03:22:18.926Z,85.14
2018-07-08T03:24:11.701Z,86.10
2018-07-08T03:25:11.621Z,86.10
2018-07-08T03:27:04.405Z,85.24
2018-07-08T03:28:04.342Z,85.04
2018-07-08T03:29:57.114Z,86.10
2018-07-08T03:30:57.045Z,84.56
2018-07-08T03:32:49.853Z,84.66
2018-07-08T03:33:49.758Z,85.81
2018-07-08T03:35:42.534Z,85.85
2018-07-08T03:36:42.462Z,85.28
2018-07-08T03:38:35.249Z,85.08
2018-07-08T03:39:35.181Z,84.89
2018-07-08T03:41:27.940Z,84.56
2018-07-08T03:42:27.878Z,85.33
2018-07-08T03:44:20.664Z,84.37
2018-07-08T03:45:20.584Z,84.95
2018-07-08T03:47:13.365Z,85.04
2018-07-08T03:48:13.300Z,85.14
2018-07-08T03:50:06.067Z,83.89
2018-07-08T03:51:06.043Z,85.14
2018-07-08T03:52:58.761Z,84.75
2018-07-08T03:53:58.696Z,85.42
2018-07-08T03:55:51.481Z,84.99
2018-07-08T03:56:51.414Z,85.04
2018-07-08T03:58:44.194Z,84.99
2018-07-08T03:59:44.120Z,85.18
2018-07-08T04:01:36.895Z,84.60
2018-07-08T04:02:36.823Z,84.12
2018-07-08T04:04:29.608Z,83.84
2018-07-08T04:05:29.531Z,84.12
2018-07-08T04:07:22.299Z,84.70
2018-07-08T04:08:22.283Z,84.22
2018-07-08T04:10:15.010Z,83.84
2018-07-08T04:11:14.946Z,84.89
2018-07-08T04:13:07.713Z,84.12
2018-07-08T04:14:07.643Z,84.12
2018-07-08T04:16:00.425Z,84.41
2018-07-08T04:17:00.349Z,83.78
2018-07-08T04:18:53.134Z,84.17
2018-07-08T04:19:53.078Z,84.17
2018-07-08T04:21:45.854Z,83.20
2018-07-08T04:22:45.823Z,83.30
2018-07-08T04:24:38.614Z,84.22
2018-07-08T04:25:38.538Z,85.22
2018-07-08T04:27:31.321Z,84.26
2018-07-08T04:28:31.257Z,83.97
2018-07-08T04:30:24.067Z,85.13
2018-07-08T04:31:23.991Z,83.74
2018-07-08T04:33:16.800Z,83.84
2018-07-08T04:34:16.722Z,84.89
2018-07-08T04:36:09.495Z,84.12
2018-07-08T04:37:09.416Z,84.55
2018-07-08T04:39:02.199Z,84.51
2018-07-08T04:40:02.135Z,84.41
2018-07-08T04:41:54.898Z,83.93
2018-07-08T04:42:54.837Z,83.84
2018-07-08T04:44:47.625Z,84.70
2018-07-08T04:45:47.551Z,84.22
2018-07-08T04:47:40.362Z,84.22
2018-07-08T04:48:40.298Z,84.89
2018-07-08T04:50:33.092Z,84.51
2018-07-08T04:51:32.999Z,83.54
2018-07-08T04:53:25.781Z,84.41
2018-07-08T04:54:25.720Z,84.51
2018-07-08T04:56:18.489Z,84.03
2018-07-08T04:57:18.422Z,84.60
2018-07-08T04:59:11.209Z,84.41
2018-07-08T05:00:11.132Z,84.60
2018-07-08T05:02:03.887Z,84.99
2018-07-08T05:03:03.870Z,84.51
2018-07-08T05:04:56.637Z,85.37
2018-07-08T05:05:56.562Z,85.08
2018-07-08T05:07:49.356Z,84.60
2018-07-08T05:08:49.286Z,84.80
2018-07-08T05:10:42.059Z,85.18
2018-07-08T05:11:41.981Z,84.99
2018-07-08T05:13:34.749Z,84.94
2018-07-08T05:14:34.711Z,84.70
2018-07-08T05:16:27.495Z,84.07
2018-07-08T05:17:27.405Z,84.55
2018-07-08T05:19:20.196Z,83.59
2018-07-08T05:20:20.155Z,83.59
2018-07-08T05:22:12.877Z,83.92
2018-07-08T05:23:12.811Z,83.63
2018-07-08T05:25:05.648Z,84.17
2018-07-08T05:26:05.547Z,84.30
2018-07-08T05:27:58.309Z,83.63
2018-07-08T05:28:58.247Z,84.01
2018-07-08T05:30:51.046Z,84.01
2018-07-08T05:31:50.965Z,83.83
2018-07-08T05:33:43.752Z,83.53
2018-07-08T05:34:43.665Z,82.76
2018-07-08T05:36:36.458Z,83.63
2018-07-08T05:37:36.381Z,84.01
2018-07-08T05:39:29.176Z,82.96
2018-07-08T05:40:29.100Z,83.92
2018-07-08T05:42:21.881Z,84.07
2018-07-08T05:43:21.810Z,83.83
2018-07-08T05:45:14.605Z,83.97
2018-07-08T05:46:14.506Z,84.64
2018-07-08T05:48:07.281Z,84.01
2018-07-08T05:49:07.212Z,83.44
2018-07-08T05:50:59.982Z,83.92
2018-07-08T05:51:59.943Z,83.06
2018-07-08T05:53:52.701Z,83.06
2018-07-08T05:54:52.639Z,83.34
2018-07-08T05:56:45.429Z,82.86
2018-07-08T05:57:45.355Z,83.25
2018-07-08T05:59:38.133Z,83.73
2018-07-08T06:00:38.057Z,83.34
2018-07-08T06:02:30.827Z,84.01
2018-07-08T06:03:30.791Z,83.92
2018-07-08T06:05:23.560Z,83.73
2018-07-08T06:06:23.485Z,83.92
2018-07-08T06:08:16.292Z,83.83
2018-07-08T06:09:16.222Z,84.30
2018-07-08T06:11:09.010Z,83.15
2018-07-08T06:12:08.930Z,83.83
2018-07-08T06:14:01.729Z,83.63
2018-07-08T06:15:01.648Z,83.44
2018-07-08T06:16:54.444Z,83.92
2018-07-08T06:17:54.349Z,83.83
2018-07-08T06:19:47.142Z,84.01
2018-07-08T06:20:47.075Z,84.01
2018-07-08T06:22:39.831Z,84.50
2018-07-08T06:23:39.771Z,83.63
2018-07-08T06:25:32.546Z,84.40
2018-07-08T06:26:32.467Z,84.01
2018-07-08T06:28:25.596Z,83.63
2018-07-08T06:29:25.188Z,84.88
2018-07-08T06:31:17.961Z,84.21
2018-07-08T06:32:17.894Z,84.21
2018-07-08T06:34:10.675Z,84.11
2018-07-08T06:35:10.607Z,84.59
2018-07-08T06:37:03.411Z,84.01
2018-07-08T06:38:03.313Z,84.30
2018-07-08T06:39:56.095Z,84.01
2018-07-08T06:40:56.039Z,84.01
2018-07-08T06:42:48.805Z,83.83
2018-07-08T06:43:48.728Z,84.11
2018-07-08T06:45:41.550Z,84.01
2018-07-08T06:46:41.522Z,84.69
2018-07-08T06:48:34.268Z,84.11
2018-07-08T06:49:34.164Z,84.98
2018-07-08T06:51:26.945Z,85.94
2018-07-08T06:52:26.870Z,85.51
2018-07-08T06:54:19.639Z,85.13
2018-07-08T06:55:19.575Z,85.41
2018-07-08T06:57:12.366Z,85.89
2018-07-08T06:58:12.327Z,85.94
2018-07-08T07:00:05.071Z,85.17
2018-07-08T07:01:04.993Z,84.59
2018-07-08T07:02:57.848Z,83.86
2018-07-08T07:03:57.732Z,83.67
2018-07-08T07:05:50.497Z,83.81
2018-07-08T07:06:50.460Z,83.52
2018-07-08T07:08:43.195Z,83.33
2018-07-08T07:09:43.143Z,83.04
2018-07-08T07:11:35.915Z,82.79
2018-07-08T07:12:35.844Z,82.65
2018-07-08T07:14:28.604Z,83.04
2018-07-08T07:15:28.543Z,82.79
2018-07-08T07:17:21.345Z,82.98
2018-07-08T07:18:21.257Z,81.93
2018-07-08T07:20:14.044Z,82.89
2018-07-08T07:21:13.967Z,82.21
2018-07-08T07:23:06.828Z,82.70
2018-07-08T07:24:06.682Z,82.41
2018-07-08T07:25:59.491Z,82.79
2018-07-08T07:26:59.431Z,82.79
2018-07-08T07:28:52.195Z,83.66
2018-07-08T07:29:52.136Z,82.89
2018-07-08T07:31:44.945Z,83.31
2018-07-08T07:32:44.862Z,82.01
2018-07-08T07:34:37.691Z,80.79
2018-07-08T07:35:37.604Z,81.09
2018-07-08T07:37:30.397Z,81.76
2018-07-08T07:38:30.317Z,81.18
2018-07-08T07:40:23.099Z,81.47
2018-07-08T07:41:23.073Z,81.57
2018-07-08T07:43:15.796Z,80.79
2018-07-08T07:44:15.726Z,81.02
2018-07-08T07:46:08.518Z,79.19
2018-07-08T07:47:08.463Z,80.64
2018-07-08T07:49:01.201Z,80.06
2018-07-08T07:50:01.143Z,78.91
2018-07-08T07:51:53.922Z,79.58
2018-07-08T07:52:53.847Z,80.35
2018-07-08T07:54:46.636Z,80.26
2018-07-08T07:55:46.597Z,80.06
2018-07-08T07:57:39.373Z,80.93
2018-07-08T07:58:39.310Z,80.16
2018-07-08T08:00:32.185Z,80.26
2018-07-08T08:01:32.110Z,80.45
2018-07-08T08:03:24.837Z,79.00
2018-07-08T08:04:24.770Z,79.43
2018-07-08T08:06:17.545Z,78.66
2018-07-08T08:07:17.480Z,80.20
2018-07-08T08:09:10.248Z,81.07
2018-07-08T08:10:10.190Z,78.99
2018-07-08T08:12:02.977Z,78.59
2018-07-08T08:13:02.920Z,77.71
2018-07-08T08:14:55.681Z,75.85
2018-07-08T08:15:55.645Z,75.71
2018-07-08T08:17:48.383Z,76.68
2018-07-08T08:18:48.311Z,77.32
2018-07-08T08:20:41.096Z,76.35
2018-07-08T08:21:41.028Z,76.06
2018-07-08T08:23:33.832Z,76.61
2018-07-08T08:24:33.781Z,77.19
2018-07-08T08:26:26.573Z,78.21
2018-07-08T08:27:26.457Z,77.92
2018-07-08T08:29:19.271Z,78.31
2018-07-08T08:30:19.176Z,79.37
2018-07-08T08:32:11.964Z,77.96
2018-07-08T08:33:11.898Z,78.38
2018-07-08T08:35:04.665Z,76.84
2018-07-08T08:36:04.605Z,76.93
2018-07-08T08:37:57.499Z,75.10
2018-07-08T08:38:57.321Z,74.85
2018-07-08T08:40:50.101Z,74.85
2018-07-08T08:41:50.045Z,73.53
2018-07-08T08:43:42.839Z,75.85
2018-07-08T08:44:42.758Z,74.30
2018-07-08T08:46:35.537Z,76.01
2018-07-08T08:47:35.541Z,73.68
2018-07-08T08:49:28.255Z,76.39
2018-07-08T08:50:28.196Z,75.07
2018-07-08T08:52:21.021Z,75.46
2018-07-08T08:53:20.935Z,73.59
2018-07-08T08:55:14.130Z,75.46
2018-07-08T08:56:14.081Z,75.33
2018-07-08T08:58:06.833Z,75.04
2018-07-08T08:59:06.791Z,77.26
2018-07-08T09:00:59.546Z,75.13
2018-07-08T09:01:59.506Z,75.23
2018-07-08T09:03:52.262Z,76.29
2018-07-08T09:04:52.188Z,76.49
2018-07-08T09:06:44.984Z,76.49
2018-07-08T09:07:44.902Z,76.59
2018-07-08T09:09:37.665Z,75.91
2018-07-08T09:10:37.626Z,76.39
2018-07-08T09:12:30.392Z,77.01
2018-07-08T09:13:30.314Z,74.96
2018-07-08T09:15:23.090Z,71.70
2018-07-08T09:16:23.037Z,72.80
2018-07-08T09:18:15.812Z,70.97
2018-07-08T09:19:15.746Z,71.03
2018-07-08T09:21:08.517Z,65.50
2018-07-08T09:22:08.452Z,65.30
2018-07-08T09:24:01.323Z,63.29
2018-07-08T09:25:01.183Z,62.13
2018-07-08T09:26:53.983Z,64.81
2018-07-08T09:27:53.910Z,64.26
2018-07-08T09:29:46.694Z,65.88
2018-07-08T09:30:46.622Z,63.26
2018-07-08T09:32:39.411Z,63.48
2018-07-08T09:33:39.341Z,63.61
2018-07-08T09:35:32.118Z,62.73
2018-07-08T09:36:32.058Z,60.98
2018-07-08T09:38:24.871Z,61.86
2018-07-08T09:39:24.867Z,61.21
2018-07-08T09:41:17.591Z,62.67
2018-07-08T09:42:17.544Z,61.83
2018-07-08T09:44:10.316Z,61.83
2018-07-08T09:45:10.249Z,61.47
2018-07-08T09:47:03.029Z,61.01
2018-07-08T09:48:02.957Z,60.72
2018-07-08T09:49:55.751Z,60.16
2018-07-08T09:50:55.717Z,61.07
2018-07-08T09:52:48.492Z,58.47
2018-07-08T09:53:48.417Z,57.36
2018-07-08T09:55:41.195Z,58.66
2018-07-08T09:56:41.142Z,58.53
2018-07-08T09:58:33.955Z,58.77
2018-07-08T09:59:33.885Z,59.06
2018-07-08T10:01:26.662Z,60.00
2018-07-08T10:02:26.606Z,60.95
2018-07-08T10:04:19.402Z,63.29
2018-07-08T10:05:19.322Z,65.20
2018-07-08T10:07:12.151Z,67.21
2018-07-08T10:08:12.119Z,66.02
2018-07-08T10:10:04.893Z,67.76
2018-07-08T10:11:04.833Z,67.34
2018-07-08T10:12:57.630Z,69.44
2018-07-08T10:13:57.679Z,69.24
2018-07-08T10:15:50.345Z,70.57
2018-07-08T10:16:50.284Z,70.63
2018-07-08T10:18:43.922Z,69.96
2018-07-08T10:19:44.050Z,69.18
2018-07-08T10:21:36.669Z,68.83
2018-07-08T10:22:36.612Z,68.35
2018-07-08T10:24:29.622Z,67.80
2018-07-08T10:25:29.334Z,68.77
2018-07-08T10:27:22.142Z,69.15
2018-07-08T10:28:22.045Z,67.99
2018-07-08T10:30:14.836Z,68.08
2018-07-08T10:31:14.788Z,67.86
2018-07-08T10:33:07.566Z,68.93
2018-07-08T10:34:07.504Z,68.70
2018-07-08T10:36:00.275Z,69.12
2018-07-08T10:37:00.211Z,67.37
2018-07-08T10:38:53.007Z,69.22
2018-07-08T10:39:52.923Z,70.06
2018-07-08T10:41:45.699Z,69.18
2018-07-08T10:42:45.644Z,70.15
2018-07-08T10:44:38.438Z,70.83
2018-07-08T10:45:38.371Z,71.80
2018-07-08T10:47:31.144Z,70.90
2018-07-08T10:48:31.088Z,71.03
2018-07-08T10:50:23.879Z,71.03
2018-07-08T10:51:23.812Z,70.15
2018-07-08T10:53:16.604Z,70.48
2018-07-08T10:54:16.538Z,72.42
2018-07-08T10:56:09.317Z,71.22
2018-07-08T10:57:09.259Z,70.35
2018-07-08T10:59:02.070Z,71.19
2018-07-08T11:00:01.967Z,71.28
2018-07-08T11:01:54.749Z,71.58
2018-07-08T11:02:54.679Z,71.73
2018-07-08T11:04:47.471Z,73.19
2018-07-08T11:05:47.400Z,74.70
2018-07-08T11:07:40.174Z,74.22
2018-07-08T11:08:40.119Z,75.24
2018-07-08T11:10:32.913Z,75.15
2018-07-08T11:11:32.843Z,77.28
2018-07-08T11:13:25.624Z,76.41
2018-07-08T11:14:25.556Z,76.76
2018-07-08T11:16:18.324Z,77.73
2018-07-08T11:17:18.260Z,78.59
2018-07-08T11:19:11.062Z,77.82
2018-07-08T11:20:10.980Z,77.73
2018-07-08T11:22:03.753Z,78.56
2018-07-08T11:23:03.692Z,78.66
2018-07-08T11:24:56.495Z,77.98
2018-07-08T11:25:56.421Z,78.56
2018-07-08T11:27:49.192Z,78.27
2018-07-08T11:28:49.135Z,78.75
2018-07-08T11:30:41.918Z,79.14
2018-07-08T11:31:41.852Z,78.85
2018-07-08T11:33:34.637Z,79.72
2018-07-08T11:34:34.558Z,78.75
2018-07-08T11:36:27.336Z,79.82
2018-07-08T11:37:27.278Z,79.04
2018-07-08T11:39:20.069Z,79.43
2018-07-08T11:40:19.990Z,79.04
2018-07-08T11:42:12.812Z,79.57
2018-07-08T11:43:12.716Z,79.17
2018-07-08T11:45:05.510Z,79.08
2018-07-08T11:46:05.447Z,80.57
2018-07-08T11:47:58.305Z,77.96
2018-07-08T11:48:58.149Z,77.61
2018-07-08T11:50:50.930Z,77.32
2018-07-08T11:51:50.855Z,77.22
2018-07-08T11:53:43.640Z,78.58
2018-07-08T11:54:43.683Z,79.06
2018-07-08T11:56:36.360Z,78.74
2018-07-08T11:57:36.296Z,79.45
2018-07-08T11:59:29.072Z,79.45
2018-07-08T12:00:29.002Z,77.61
2018-07-08T12:02:21.789Z,78.09
2018-07-08T12:03:21.715Z,79.64
2018-07-08T12:05:14.519Z,78.58
2018-07-08T12:06:14.433Z,78.52
2018-07-08T12:08:07.225Z,77.84
2018-07-08T12:09:07.167Z,77.06
2018-07-08T12:10:59.950Z,77.94
2018-07-08T12:11:59.883Z,77.65
2018-07-08T12:13:52.660Z,78.23
2018-07-08T12:14:52.595Z,78.07
2018-07-08T12:16:45.365Z,78.17
2018-07-08T12:17:45.305Z,78.03
2018-07-08T12:19:38.082Z,78.33
2018-07-08T12:20:38.016Z,78.13
2018-07-08T12:22:30.793Z,78.77
2018-07-08T12:23:30.730Z,78.67
2018-07-08T12:25:23.567Z,80.42
2018-07-08T12:26:23.504Z,79.06
2018-07-08T12:28:16.281Z,79.25
2018-07-08T12:29:16.214Z,79.41
2018-07-08T12:31:08.999Z,79.70
2018-07-08T12:32:08.932Z,80.19
2018-07-08T12:34:01.728Z,80.47
2018-07-08T12:35:01.646Z,80.67
2018-07-08T12:36:54.468Z,79.70
2018-07-08T12:37:54.358Z,80.09
2018-07-08T12:39:47.153Z,80.09
2018-07-08T12:40:47.089Z,79.57
2018-07-08T12:42:39.853Z,79.95
2018-07-08T12:43:39.807Z,80.05
2018-07-08T12:45:32.588Z,81.21
2018-07-08T12:46:32.528Z,79.76
2018-07-08T12:48:25.362Z,81.40
2018-07-08T12:49:25.314Z,80.05
2018-07-08T12:51:18.114Z,79.95
2018-07-08T12:52:18.067Z,79.57
2018-07-08T12:54:10.847Z,80.67
2018-07-08T12:55:10.744Z,80.09
2018-07-08T12:57:03.527Z,79.80
2018-07-08T12:58:03.472Z,80.57
2018-07-08T12:59:56.249Z,79.41
2018-07-08T13:00:56.179Z,78.92
2018-07-08T13:02:48.946Z,78.34
2018-07-08T13:03:48.896Z,78.05
2018-07-08T13:05:41.688Z,77.47
2018-07-08T13:06:41.648Z,77.42
2018-07-08T13:08:34.406Z,77.42
2018-07-08T13:09:34.354Z,77.03
2018-07-08T13:11:27.150Z,77.32
2018-07-08T13:12:27.051Z,77.32
2018-07-08T13:14:19.847Z,77.22
2018-07-08T13:15:19.781Z,76.25
2018-07-08T13:17:12.561Z,76.54
2018-07-08T13:18:12.503Z,76.54
2018-07-08T13:20:05.347Z,76.25
2018-07-08T13:21:05.247Z,75.51
2018-07-08T13:22:58.000Z,74.54
2018-07-08T13:23:57.957Z,75.42
2018-07-08T13:25:50.721Z,74.45
2018-07-08T13:26:50.675Z,74.45
2018-07-08T13:28:43.430Z,75.03
2018-07-08T13:29:43.383Z,75.03
2018-07-08T13:31:36.153Z,77.06
2018-07-08T13:32:36.143Z,75.32
2018-07-08T13:34:28.908Z,75.03
2018-07-08T13:35:28.855Z,76.58
2018-07-08T13:37:21.577Z,74.49
2018-07-08T13:38:21.537Z,75.03
2018-07-08T13:40:14.315Z,75.32
2018-07-08T13:41:14.238Z,75.32
2018-07-08T13:43:07.036Z,74.39
2018-07-08T13:44:06.966Z,74.29
2018-07-08T13:45:59.741Z,75.36
2018-07-08T13:46:59.690Z,75.45
2018-07-08T13:48:52.455Z,73.80
2018-07-08T13:49:52.406Z,73.71
2018-07-08T13:51:45.177Z,73.86
2018-07-08T13:52:45.135Z,76.14
2018-07-08T13:54:38.008Z,74.93
2018-07-08T13:55:37.904Z,74.93
2018-07-08T13:57:30.612Z,75.32
2018-07-08T13:58:30.556Z,74.16
2018-07-08T14:00:23.358Z,75.42
2018-07-08T14:01:23.276Z,75.71
2018-07-08T14:03:16.076Z,75.71
2018-07-08T14:04:15.991Z,74.54
2018-07-08T14:06:08.780Z,75.03
2018-07-08T14:07:08.711Z,74.45
2018-07-08T14:09:01.504Z,76.19
2018-07-08T14:10:01.437Z,75.03
2018-07-08T14:11:54.248Z,74.54
2018-07-08T14:12:54.157Z,75.71
2018-07-08T14:14:47.064Z,73.32
2018-07-08T14:15:47.000Z,71.58
2018-07-08T14:17:39.670Z,72.25
2018-07-08T14:18:39.583Z,73.32
2018-07-08T14:20:32.544Z,73.32
2018-07-08T14:21:32.341Z,74.19
2018-07-08T14:23:25.108Z,73.80
2018-07-08T14:24:25.061Z,74.39
2018-07-08T14:26:17.922Z,73.90
2018-07-08T14:27:17.868Z,73.13
2018-07-08T14:29:10.643Z,72.64
2018-07-08T14:30:10.589Z,71.48
2018-07-08T14:32:03.367Z,72.74
2018-07-08T14:33:03.304Z,71.58
2018-07-08T14:34:56.258Z,71.19
2018-07-08T14:35:56.058Z,72.16
2018-07-08T14:37:48.827Z,71.80
2018-07-08T14:38:48.768Z,71.61
2018-07-08T14:40:41.605Z,70.45
2018-07-08T14:41:41.485Z,71.48
2018-07-08T14:43:34.266Z,70.90
2018-07-08T14:44:34.262Z,70.61
2018-07-08T14:46:26.994Z,70.45
2018-07-08T14:47:26.910Z,71.12
2018-07-08T14:49:19.752Z,71.06
2018-07-08T14:50:19.665Z,70.64
2018-07-08T14:52:12.561Z,69.60
2018-07-08T14:53:12.376Z,71.16
2018-07-08T14:55:05.363Z,70.87
2018-07-08T14:56:05.097Z,70.97
2018-07-08T14:57:57.891Z,70.15
2018-07-08T14:58:57.811Z,69.28
2018-07-08T15:00:50.598Z,69.38
2018-07-08T15:01:50.525Z,69.38
2018-07-08T15:03:43.326Z,70.70
2018-07-08T15:04:43.288Z,70.03
2018-07-08T15:06:36.051Z,70.15
2018-07-08T15:07:35.981Z,70.73
2018-07-08T15:09:28.779Z,68.83
2018-07-08T15:10:28.711Z,68.25
2018-07-08T15:12:21.494Z,67.86
2018-07-08T15:13:21.432Z,67.18
2018-07-08T15:15:14.224Z,67.02
2018-07-08T15:16:14.211Z,66.72
2018-07-08T15:18:06.952Z,66.72
2018-07-08T15:19:06.882Z,65.75
2018-07-08T15:20:59.711Z,65.75
2018-07-08T15:21:59.603Z,65.47
2018-07-08T15:23:52.375Z,64.88
2018-07-08T15:24:52.325Z,64.49
2018-07-08T15:26:45.113Z,63.91
2018-07-08T15:27:45.043Z,64.11
2018-07-08T15:29:37.807Z,64.20
2018-07-08T15:30:37.794Z,64.20
2018-07-08T15:32:30.604Z,65.27
2018-07-08T15:33:30.476Z,64.88
2018-07-08T15:35:23.269Z,64.20
2018-07-08T15:36:23.213Z,64.88
2018-07-08T15:38:16.013Z,65.05
2018-07-08T15:39:15.936Z,66.05
2018-07-08T15:41:08.730Z,66.60
2018-07-08T15:42:08.647Z,66.89
2018-07-08T15:44:01.433Z,67.86
2018-07-08T15:45:01.376Z,67.18
2018-07-08T15:46:54.231Z,67.47
2018-07-08T15:47:54.093Z,66.40
2018-07-08T15:49:46.910Z,66.69
2018-07-08T15:50:46.820Z,66.60
2018-07-08T15:52:39.634Z,64.85
2018-07-08T15:53:39.571Z,64.75
2018-07-08T15:55:32.625Z,64.95
2018-07-08T15:56:32.561Z,66.21
2018-07-08T15:58:25.360Z,66.66
2018-07-08T15:59:25.288Z,67.05
2018-07-08T16:01:18.074Z,66.99
2018-07-08T16:02:18.009Z,66.79
2018-07-08T16:04:10.798Z,67.37
2018-07-08T16:05:10.733Z,67.47
2018-07-08T16:07:03.525Z,67.18
2018-07-08T16:08:03.458Z,66.11
2018-07-08T16:09:56.232Z,65.53
2018-07-08T16:10:56.169Z,65.63
2018-07-08T16:12:48.953Z,66.40
2018-07-08T16:13:48.884Z,67.57
2018-07-08T16:15:41.672Z,66.60
2018-07-08T16:16:41.649Z,65.92
2018-07-08T16:18:34.637Z,65.63
2018-07-08T16:19:34.370Z,65.33
2018-07-08T16:21:27.151Z,66.30
2018-07-08T16:22:27.095Z,66.30
2018-07-08T16:24:19.871Z,66.30
2018-07-08T16:25:19.817Z,66.95
2018-07-08T16:27:12.601Z,67.14
2018-07-08T16:28:12.533Z,68.12
2018-07-08T16:30:05.316Z,67.92
2018-07-08T16:31:05.255Z,66.66
2018-07-08T16:32:58.064Z,66.76
2018-07-08T16:33:58.002Z,66.66
2018-07-08T16:35:50.789Z,66.47
2018-07-08T16:36:50.726Z,66.27
2018-07-08T16:38:43.531Z,66.95
2018-07-08T16:39:43.450Z,66.86
2018-07-08T16:41:36.248Z,66.86
2018-07-08T16:42:36.181Z,66.66
2018-07-08T16:44:28.952Z,66.86
2018-07-08T16:45:28.899Z,65.59
2018-07-08T16:47:21.678Z,66.66
2018-07-08T16:48:21.607Z,68.02
2018-07-08T16:50:14.393Z,65.50
2018-07-08T16:51:14.326Z,66.47
2018-07-08T16:53:07.130Z,65.20
2018-07-08T16:54:07.051Z,65.69
2018-07-08T16:55:59.847Z,64.14
2018-07-08T16:56:59.785Z,63.26
2018-07-08T16:58:52.578Z,63.17
2018-07-08T16:59:52.509Z,63.07
2018-07-08T17:01:45.293Z,62.19
2018-07-08T17:02:45.221Z,62.49
2018-07-08T17:04:38.009Z,62.98
2018-07-08T17:05:37.958Z,62.39
2018-07-08T17:07:30.746Z,63.10
2018-07-08T17:08:30.692Z,62.88
2018-07-08T17:10:23.457Z,61.42
2018-07-08T17:11:23.387Z,61.13
2018-07-08T17:13:16.194Z,62.68
2018-07-08T17:14:16.116Z,62.39
2018-07-08T17:16:08.923Z,62.29
2018-07-08T17:17:08.836Z,62.29
2018-07-08T17:19:01.617Z,62.78
2018-07-08T17:20:01.603Z,62.88
2018-07-08T17:21:54.344Z,62.49
2018-07-08T17:22:54.271Z,62.39
2018-07-08T17:24:47.042Z,61.22
2018-07-08T17:25:46.975Z,61.13
2018-07-08T17:27:39.786Z,61.71
2018-07-08T17:28:39.710Z,62.01
2018-07-08T17:30:32.497Z,61.49
2018-07-08T17:31:32.444Z,62.49
2018-07-08T17:33:25.269Z,64.20
2018-07-08T17:34:25.168Z,63.53
2018-07-08T17:36:17.964Z,62.46
2018-07-08T17:37:17.965Z,62.55
2018-07-08T17:39:10.709Z,62.95
2018-07-08T17:40:10.619Z,62.36
2018-07-08T17:42:03.406Z,62.55
2018-07-08T17:43:03.338Z,62.36
2018-07-08T17:44:56.116Z,61.29
2018-07-08T17:45:56.065Z,61.49
2018-07-08T17:47:48.880Z,62.16
2018-07-08T17:48:48.780Z,62.16
2018-07-08T17:50:41.585Z,62.36
2018-07-08T17:51:41.515Z,63.53
2018-07-08T17:53:34.287Z,64.85
2018-07-08T17:54:34.213Z,63.49
2018-07-08T17:56:27.003Z,63.10
2018-07-08T17:57:26.952Z,63.78
2018-07-08T17:59:19.744Z,62.52
2018-07-08T18:00:19.674Z,63.88
2018-07-08T18:02:12.458Z,63.98
2018-07-08T18:03:12.447Z,63.01
2018-07-08T18:05:05.182Z,63.30
2018-07-08T18:06:05.105Z,62.33
2018-07-08T18:07:57.930Z,62.91
2018-07-08T18:08:57.875Z,63.10
2018-07-08T18:10:50.629Z,63.95
2018-07-08T18:11:50.590Z,63.98
2018-07-08T18:13:43.396Z,63.95
2018-07-08T18:14:43.301Z,65.11
2018-07-08T18:16:36.085Z,63.75
2018-07-08T18:17:36.023Z,64.43
2018-07-08T18:19:28.801Z,63.75
2018-07-08T18:20:28.726Z,63.07
2018-07-08T18:22:21.528Z,64.92
2018-07-08T18:23:21.453Z,64.82
2018-07-08T18:25:14.233Z,62.72
2018-07-08T18:26:14.192Z,62.07
2018-07-08T18:28:06.964Z,61.46
2018-07-08T18:29:06.898Z,61.65
2018-07-08T18:30:59.714Z,63.95
2018-07-08T18:31:59.625Z,62.49